sensor_id;sensor_type;location;lat;lon;timestamp;P1;durP1;ratioP1;P2;durP2;ratioP2
3698;SDS011;1865;50.918;7.092;2023-03-05T00:01:07;17.77;;;4.40;;
3698;SDS011;1865;50.918;7.092;2023-03-05T00:03:33;25.53;;;5.20;;
3698;SDS011;1865;50.918;7.092;2023-03-05T00:05:59;13.90;;;4.13;;
3698;SDS011;1865;50.918;7.092;2023-03-05T00:08:26;16.13;;;4.20;;
3698;SDS011;1865;50.918;7.092;2023-03-05T00:11:00;21.03;;;4.60;;
3698;SDS011;1865;50.918;7.092;2023-03-05T00:13:27;21.67;;;5.53;;
3698;SDS011;1865;50.918;7.092;2023-03-05T00:15:53;16.17;;;3.87;;
3698;SDS011;1865;50.918;7.092;2023-03-05T00:18:19;19.83;;;4.70;;
3698;SDS011;1865;50.918;7.092;2023-03-05T00:20:45;21.53;;;4.53;;
3698;SDS011;1865;50.918;7.092;2023-03-05T00:23:11;21.77;;;4.87;;
3698;SDS011;1865;50.918;7.092;2023-03-05T00:25:38;16.13;;;4.83;;
3698;SDS011;1865;50.918;7.092;2023-03-05T00:28:05;13.60;;;4.37;;
3698;SDS011;1865;50.918;7.092;2023-03-05T00:30:31;15.40;;;4.57;;
3698;SDS011;1865;50.918;7.092;2023-03-05T00:32:56;12.63;;;4.37;;
3698;SDS011;1865;50.918;7.092;2023-03-05T00:35:22;14.40;;;3.73;;
3698;SDS011;1865;50.918;7.092;2023-03-05T00:37:48;15.10;;;3.80;;
3698;SDS011;1865;50.918;7.092;2023-03-05T00:40:13;17.47;;;3.37;;
3698;SDS011;1865;50.918;7.092;2023-03-05T00:42:39;13.03;;;3.30;;
3698;SDS011;1865;50.918;7.092;2023-03-05T00:45:05;17.57;;;4.50;;
3698;SDS011;1865;50.918;7.092;2023-03-05T00:47:32;18.07;;;3.37;;
3698;SDS011;1865;50.918;7.092;2023-03-05T00:49:57;18.27;;;3.53;;
3698;SDS011;1865;50.918;7.092;2023-03-05T00:52:23;11.67;;;3.17;;
3698;SDS011;1865;50.918;7.092;2023-03-05T00:54:48;12.40;;;2.90;;
3698;SDS011;1865;50.918;7.092;2023-03-05T00:57:14;12.23;;;3.27;;
3698;SDS011;1865;50.918;7.092;2023-03-05T00:59:39;13.40;;;3.07;;
3698;SDS011;1865;50.918;7.092;2023-03-05T01:02:05;13.67;;;3.43;;
3698;SDS011;1865;50.918;7.092;2023-03-05T01:04:31;14.10;;;3.70;;
3698;SDS011;1865;50.918;7.092;2023-03-05T01:06:56;16.00;;;3.07;;
3698;SDS011;1865;50.918;7.092;2023-03-05T01:09:23;19.07;;;3.60;;
3698;SDS011;1865;50.918;7.092;2023-03-05T01:11:49;13.93;;;3.30;;
3698;SDS011;1865;50.918;7.092;2023-03-05T01:14:15;18.60;;;2.63;;
3698;SDS011;1865;50.918;7.092;2023-03-05T01:16:41;10.73;;;2.97;;
3698;SDS011;1865;50.918;7.092;2023-03-05T01:19:07;26.30;;;3.83;;
3698;SDS011;1865;50.918;7.092;2023-03-05T01:21:33;9.70;;;2.63;;
3698;SDS011;1865;50.918;7.092;2023-03-05T01:24:00;11.23;;;2.30;;
3698;SDS011;1865;50.918;7.092;2023-03-05T01:26:26;16.33;;;2.43;;
3698;SDS011;1865;50.918;7.092;2023-03-05T01:28:52;11.80;;;3.53;;
3698;SDS011;1865;50.918;7.092;2023-03-05T01:31:18;15.73;;;3.60;;
3698;SDS011;1865;50.918;7.092;2023-03-05T01:33:44;12.53;;;2.93;;
3698;SDS011;1865;50.918;7.092;2023-03-05T01:36:11;11.40;;;3.30;;
3698;SDS011;1865;50.918;7.092;2023-03-05T01:38:41;15.93;;;3.00;;
3698;SDS011;1865;50.918;7.092;2023-03-05T01:41:07;17.13;;;2.97;;
3698;SDS011;1865;50.918;7.092;2023-03-05T01:43:33;11.47;;;2.07;;
3698;SDS011;1865;50.918;7.092;2023-03-05T01:48:47;10.67;;;2.83;;
3698;SDS011;1865;50.918;7.092;2023-03-05T01:51:18;12.77;;;2.03;;
3698;SDS011;1865;50.918;7.092;2023-03-05T01:53:46;14.57;;;1.87;;
3698;SDS011;1865;50.918;7.092;2023-03-05T01:56:12;9.13;;;1.63;;
3698;SDS011;1865;50.918;7.092;2023-03-05T01:58:38;10.33;;;1.93;;
3698;SDS011;1865;50.918;7.092;2023-03-05T02:01:04;12.47;;;2.00;;
3698;SDS011;1865;50.918;7.092;2023-03-05T02:03:30;10.27;;;2.43;;
3698;SDS011;1865;50.918;7.092;2023-03-05T02:05:57;9.20;;;2.00;;
3698;SDS011;1865;50.918;7.092;2023-03-05T02:08:23;12.67;;;2.13;;
3698;SDS011;1865;50.918;7.092;2023-03-05T02:10:52;9.40;;;1.77;;
3698;SDS011;1865;50.918;7.092;2023-03-05T02:13:23;12.27;;;1.57;;
3698;SDS011;1865;50.918;7.092;2023-03-05T02:15:52;10.20;;;2.87;;
3698;SDS011;1865;50.918;7.092;2023-03-05T02:18:19;13.30;;;1.93;;
3698;SDS011;1865;50.918;7.092;2023-03-05T02:20:46;11.17;;;1.60;;
3698;SDS011;1865;50.918;7.092;2023-03-05T02:23:16;13.20;;;2.20;;
3698;SDS011;1865;50.918;7.092;2023-03-05T02:25:43;13.27;;;1.97;;
3698;SDS011;1865;50.918;7.092;2023-03-05T02:28:16;12.77;;;1.60;;
3698;SDS011;1865;50.918;7.092;2023-03-05T02:30:46;14.83;;;1.73;;
3698;SDS011;1865;50.918;7.092;2023-03-05T02:33:13;10.07;;;1.60;;
3698;SDS011;1865;50.918;7.092;2023-03-05T02:35:39;11.20;;;2.40;;
3698;SDS011;1865;50.918;7.092;2023-03-05T02:38:07;10.70;;;1.93;;
3698;SDS011;1865;50.918;7.092;2023-03-05T02:40:33;6.87;;;1.33;;
3698;SDS011;1865;50.918;7.092;2023-03-05T02:42:59;14.13;;;2.20;;
3698;SDS011;1865;50.918;7.092;2023-03-05T02:45:24;10.83;;;1.40;;
3698;SDS011;1865;50.918;7.092;2023-03-05T02:47:50;13.83;;;1.70;;
3698;SDS011;1865;50.918;7.092;2023-03-05T02:50:15;8.80;;;1.73;;
3698;SDS011;1865;50.918;7.092;2023-03-05T02:52:41;7.57;;;1.30;;
3698;SDS011;1865;50.918;7.092;2023-03-05T02:55:06;9.10;;;1.63;;
3698;SDS011;1865;50.918;7.092;2023-03-05T02:57:32;14.10;;;2.27;;
3698;SDS011;1865;50.918;7.092;2023-03-05T02:59:58;15.70;;;2.03;;
3698;SDS011;1865;50.918;7.092;2023-03-05T03:02:23;10.20;;;2.27;;
3698;SDS011;1865;50.918;7.092;2023-03-05T03:04:49;8.70;;;1.53;;
3698;SDS011;1865;50.918;7.092;2023-03-05T03:07:14;11.27;;;1.80;;
3698;SDS011;1865;50.918;7.092;2023-03-05T03:09:40;15.90;;;1.73;;
3698;SDS011;1865;50.918;7.092;2023-03-05T03:12:07;8.70;;;1.67;;
3698;SDS011;1865;50.918;7.092;2023-03-05T03:14:34;11.20;;;2.20;;
3698;SDS011;1865;50.918;7.092;2023-03-05T03:17:04;9.20;;;1.43;;
3698;SDS011;1865;50.918;7.092;2023-03-05T03:19:35;6.23;;;1.57;;
3698;SDS011;1865;50.918;7.092;2023-03-05T03:22:02;7.10;;;1.20;;
3698;SDS011;1865;50.918;7.092;2023-03-05T03:24:28;10.23;;;1.83;;
3698;SDS011;1865;50.918;7.092;2023-03-05T03:26:55;10.07;;;2.10;;
3698;SDS011;1865;50.918;7.092;2023-03-05T03:29:20;9.67;;;2.00;;
3698;SDS011;1865;50.918;7.092;2023-03-05T03:31:46;13.70;;;2.47;;
3698;SDS011;1865;50.918;7.092;2023-03-05T03:34:12;9.50;;;1.80;;
3698;SDS011;1865;50.918;7.092;2023-03-05T03:36:39;11.47;;;2.00;;
3698;SDS011;1865;50.918;7.092;2023-03-05T03:39:06;13.03;;;2.63;;
3698;SDS011;1865;50.918;7.092;2023-03-05T03:41:34;10.03;;;2.27;;
3698;SDS011;1865;50.918;7.092;2023-03-05T03:44:00;13.23;;;2.60;;
3698;SDS011;1865;50.918;7.092;2023-03-05T03:46:27;18.67;;;2.53;;
3698;SDS011;1865;50.918;7.092;2023-03-05T03:48:53;12.17;;;2.57;;
3698;SDS011;1865;50.918;7.092;2023-03-05T03:51:18;15.17;;;2.27;;
3698;SDS011;1865;50.918;7.092;2023-03-05T03:53:44;13.03;;;3.10;;
3698;SDS011;1865;50.918;7.092;2023-03-05T03:56:09;8.47;;;2.23;;
3698;SDS011;1865;50.918;7.092;2023-03-05T03:58:35;13.07;;;2.47;;
3698;SDS011;1865;50.918;7.092;2023-03-05T04:01:00;8.80;;;1.83;;
3698;SDS011;1865;50.918;7.092;2023-03-05T04:03:26;8.23;;;1.57;;
3698;SDS011;1865;50.918;7.092;2023-03-05T04:05:51;15.53;;;2.10;;
3698;SDS011;1865;50.918;7.092;2023-03-05T04:08:17;15.87;;;2.30;;
3698;SDS011;1865;50.918;7.092;2023-03-05T04:10:42;10.37;;;1.70;;
3698;SDS011;1865;50.918;7.092;2023-03-05T04:13:08;9.17;;;2.00;;
3698;SDS011;1865;50.918;7.092;2023-03-05T04:15:34;25.87;;;2.23;;
3698;SDS011;1865;50.918;7.092;2023-03-05T04:17:59;7.97;;;1.47;;
3698;SDS011;1865;50.918;7.092;2023-03-05T04:20:25;12.47;;;2.27;;
3698;SDS011;1865;50.918;7.092;2023-03-05T04:22:50;8.80;;;1.90;;
3698;SDS011;1865;50.918;7.092;2023-03-05T04:25:16;12.23;;;2.10;;
3698;SDS011;1865;50.918;7.092;2023-03-05T04:27:41;11.90;;;1.87;;
3698;SDS011;1865;50.918;7.092;2023-03-05T04:30:10;11.37;;;1.90;;
3698;SDS011;1865;50.918;7.092;2023-03-05T04:32:38;12.93;;;1.80;;
3698;SDS011;1865;50.918;7.092;2023-03-05T04:35:04;9.40;;;2.13;;
3698;SDS011;1865;50.918;7.092;2023-03-05T04:37:30;7.83;;;1.70;;
3698;SDS011;1865;50.918;7.092;2023-03-05T04:39:56;9.70;;;1.50;;
3698;SDS011;1865;50.918;7.092;2023-03-05T04:42:21;9.97;;;2.47;;
3698;SDS011;1865;50.918;7.092;2023-03-05T04:44:47;10.87;;;1.50;;
3698;SDS011;1865;50.918;7.092;2023-03-05T04:47:13;14.53;;;1.90;;
3698;SDS011;1865;50.918;7.092;2023-03-05T04:49:39;10.80;;;2.30;;
3698;SDS011;1865;50.918;7.092;2023-03-05T04:52:05;7.00;;;1.40;;
3698;SDS011;1865;50.918;7.092;2023-03-05T04:54:30;12.40;;;1.90;;
3698;SDS011;1865;50.918;7.092;2023-03-05T04:56:56;11.77;;;1.43;;
3698;SDS011;1865;50.918;7.092;2023-03-05T04:59:21;12.10;;;2.00;;
3698;SDS011;1865;50.918;7.092;2023-03-05T05:01:47;10.73;;;1.50;;
3698;SDS011;1865;50.918;7.092;2023-03-05T05:04:12;9.90;;;1.40;;
3698;SDS011;1865;50.918;7.092;2023-03-05T05:06:38;11.80;;;1.70;;
3698;SDS011;1865;50.918;7.092;2023-03-05T05:09:03;12.97;;;1.57;;
3698;SDS011;1865;50.918;7.092;2023-03-05T05:11:29;11.13;;;1.70;;
3698;SDS011;1865;50.918;7.092;2023-03-05T05:13:54;11.70;;;2.23;;
3698;SDS011;1865;50.918;7.092;2023-03-05T05:16:20;11.47;;;1.83;;
3698;SDS011;1865;50.918;7.092;2023-03-05T05:18:45;12.10;;;1.97;;
3698;SDS011;1865;50.918;7.092;2023-03-05T05:21:11;9.20;;;1.80;;
3698;SDS011;1865;50.918;7.092;2023-03-05T05:23:38;6.20;;;1.30;;
3698;SDS011;1865;50.918;7.092;2023-03-05T05:26:05;8.57;;;1.23;;
3698;SDS011;1865;50.918;7.092;2023-03-05T05:28:32;7.07;;;1.23;;
3698;SDS011;1865;50.918;7.092;2023-03-05T05:30:58;6.53;;;1.30;;
3698;SDS011;1865;50.918;7.092;2023-03-05T05:33:24;13.03;;;1.40;;
3698;SDS011;1865;50.918;7.092;2023-03-05T05:35:50;6.30;;;1.43;;
3698;SDS011;1865;50.918;7.092;2023-03-05T05:38:15;8.00;;;1.13;;
3698;SDS011;1865;50.918;7.092;2023-03-05T05:40:41;6.03;;;1.33;;
3698;SDS011;1865;50.918;7.092;2023-03-05T05:43:07;10.47;;;1.47;;
3698;SDS011;1865;50.918;7.092;2023-03-05T05:45:33;7.67;;;1.93;;
3698;SDS011;1865;50.918;7.092;2023-03-05T05:47:58;8.90;;;1.53;;
3698;SDS011;1865;50.918;7.092;2023-03-05T05:50:24;10.30;;;1.60;;
3698;SDS011;1865;50.918;7.092;2023-03-05T05:52:51;10.57;;;1.87;;
3698;SDS011;1865;50.918;7.092;2023-03-05T05:55:16;13.93;;;1.97;;
3698;SDS011;1865;50.918;7.092;2023-03-05T05:57:42;15.70;;;1.60;;
3698;SDS011;1865;50.918;7.092;2023-03-05T06:00:09;8.20;;;1.60;;
3698;SDS011;1865;50.918;7.092;2023-03-05T06:02:37;6.93;;;1.57;;
3698;SDS011;1865;50.918;7.092;2023-03-05T06:05:03;13.40;;;2.33;;
3698;SDS011;1865;50.918;7.092;2023-03-05T06:07:29;8.43;;;2.20;;
3698;SDS011;1865;50.918;7.092;2023-03-05T06:09:55;7.03;;;1.83;;
3698;SDS011;1865;50.918;7.092;2023-03-05T06:12:21;10.73;;;1.50;;
3698;SDS011;1865;50.918;7.092;2023-03-05T06:14:47;11.00;;;2.03;;
3698;SDS011;1865;50.918;7.092;2023-03-05T06:17:12;8.67;;;1.67;;
3698;SDS011;1865;50.918;7.092;2023-03-05T06:19:38;8.00;;;2.30;;
3698;SDS011;1865;50.918;7.092;2023-03-05T06:22:03;14.13;;;1.90;;
3698;SDS011;1865;50.918;7.092;2023-03-05T06:24:29;13.13;;;2.63;;
3698;SDS011;1865;50.918;7.092;2023-03-05T06:26:54;11.27;;;2.13;;
3698;SDS011;1865;50.918;7.092;2023-03-05T06:29:20;7.33;;;1.60;;
3698;SDS011;1865;50.918;7.092;2023-03-05T06:31:45;10.00;;;2.20;;
3698;SDS011;1865;50.918;7.092;2023-03-05T06:34:11;13.33;;;2.53;;
3698;SDS011;1865;50.918;7.092;2023-03-05T06:36:37;18.03;;;2.10;;
3698;SDS011;1865;50.918;7.092;2023-03-05T06:39:04;10.20;;;2.20;;
3698;SDS011;1865;50.918;7.092;2023-03-05T06:41:30;19.20;;;2.60;;
3698;SDS011;1865;50.918;7.092;2023-03-05T06:43:58;10.10;;;2.30;;
3698;SDS011;1865;50.918;7.092;2023-03-05T06:46:25;9.97;;;2.57;;
3698;SDS011;1865;50.918;7.092;2023-03-05T06:48:56;15.70;;;2.03;;
3698;SDS011;1865;50.918;7.092;2023-03-05T06:51:25;19.77;;;2.80;;
3698;SDS011;1865;50.918;7.092;2023-03-05T06:53:58;12.20;;;1.77;;
3698;SDS011;1865;50.918;7.092;2023-03-05T06:56:25;17.33;;;2.37;;
3698;SDS011;1865;50.918;7.092;2023-03-05T06:58:50;7.50;;;1.70;;
3698;SDS011;1865;50.918;7.092;2023-03-05T07:01:17;9.93;;;1.90;;
3698;SDS011;1865;50.918;7.092;2023-03-05T07:03:44;11.37;;;2.37;;
3698;SDS011;1865;50.918;7.092;2023-03-05T07:06:14;10.30;;;2.80;;
3698;SDS011;1865;50.918;7.092;2023-03-05T07:08:40;9.63;;;1.80;;
3698;SDS011;1865;50.918;7.092;2023-03-05T07:11:11;12.20;;;2.10;;
3698;SDS011;1865;50.918;7.092;2023-03-05T07:13:38;14.53;;;2.23;;
3698;SDS011;1865;50.918;7.092;2023-03-05T07:16:08;11.60;;;2.00;;
3698;SDS011;1865;50.918;7.092;2023-03-05T07:18:35;9.63;;;2.33;;
3698;SDS011;1865;50.918;7.092;2023-03-05T07:21:04;10.87;;;1.87;;
3698;SDS011;1865;50.918;7.092;2023-03-05T07:23:31;11.63;;;2.17;;
3698;SDS011;1865;50.918;7.092;2023-03-05T07:25:59;14.93;;;2.30;;
3698;SDS011;1865;50.918;7.092;2023-03-05T07:28:25;9.33;;;2.70;;
3698;SDS011;1865;50.918;7.092;2023-03-05T07:30:55;16.77;;;2.83;;
3698;SDS011;1865;50.918;7.092;2023-03-05T07:33:28;19.73;;;3.53;;
3698;SDS011;1865;50.918;7.092;2023-03-05T07:35:54;21.30;;;4.03;;
3698;SDS011;1865;50.918;7.092;2023-03-05T07:38:20;12.60;;;3.10;;
3698;SDS011;1865;50.918;7.092;2023-03-05T07:40:46;21.13;;;4.20;;
3698;SDS011;1865;50.918;7.092;2023-03-05T07:43:12;13.70;;;3.40;;
3698;SDS011;1865;50.918;7.092;2023-03-05T07:45:38;15.93;;;3.50;;
3698;SDS011;1865;50.918;7.092;2023-03-05T07:48:05;14.63;;;3.73;;
3698;SDS011;1865;50.918;7.092;2023-03-05T07:50:31;13.97;;;3.70;;
3698;SDS011;1865;50.918;7.092;2023-03-05T07:52:57;12.93;;;3.00;;
3698;SDS011;1865;50.918;7.092;2023-03-05T07:55:23;13.00;;;3.13;;
3698;SDS011;1865;50.918;7.092;2023-03-05T07:57:48;12.20;;;2.33;;
3698;SDS011;1865;50.918;7.092;2023-03-05T08:00:14;12.30;;;3.03;;
3698;SDS011;1865;50.918;7.092;2023-03-05T08:02:40;12.33;;;2.60;;
3698;SDS011;1865;50.918;7.092;2023-03-05T08:05:05;10.50;;;3.30;;
3698;SDS011;1865;50.918;7.092;2023-03-05T08:07:31;10.37;;;3.20;;
3698;SDS011;1865;50.918;7.092;2023-03-05T08:09:57;10.07;;;2.57;;
3698;SDS011;1865;50.918;7.092;2023-03-05T08:12:22;17.07;;;3.10;;
3698;SDS011;1865;50.918;7.092;2023-03-05T08:14:48;12.13;;;2.90;;
3698;SDS011;1865;50.918;7.092;2023-03-05T08:17:15;19.57;;;2.60;;
3698;SDS011;1865;50.918;7.092;2023-03-05T08:19:40;17.37;;;3.70;;
3698;SDS011;1865;50.918;7.092;2023-03-05T08:22:06;9.50;;;2.57;;
3698;SDS011;1865;50.918;7.092;2023-03-05T08:24:31;9.40;;;2.47;;
3698;SDS011;1865;50.918;7.092;2023-03-05T08:26:57;8.83;;;2.60;;
3698;SDS011;1865;50.918;7.092;2023-03-05T08:29:23;10.13;;;2.57;;
3698;SDS011;1865;50.918;7.092;2023-03-05T08:31:49;15.70;;;2.87;;
3698;SDS011;1865;50.918;7.092;2023-03-05T08:34:17;13.23;;;3.00;;
3698;SDS011;1865;50.918;7.092;2023-03-05T08:36:46;16.10;;;3.20;;
3698;SDS011;1865;50.918;7.092;2023-03-05T08:39:12;15.33;;;2.60;;
3698;SDS011;1865;50.918;7.092;2023-03-05T08:41:38;17.70;;;2.80;;
3698;SDS011;1865;50.918;7.092;2023-03-05T08:44:04;11.73;;;2.70;;
3698;SDS011;1865;50.918;7.092;2023-03-05T08:46:29;10.60;;;2.43;;
3698;SDS011;1865;50.918;7.092;2023-03-05T08:48:55;13.73;;;2.90;;
3698;SDS011;1865;50.918;7.092;2023-03-05T08:51:22;11.93;;;2.43;;
3698;SDS011;1865;50.918;7.092;2023-03-05T08:53:52;8.53;;;2.30;;
3698;SDS011;1865;50.918;7.092;2023-03-05T08:56:19;15.73;;;2.60;;
3698;SDS011;1865;50.918;7.092;2023-03-05T08:58:45;19.23;;;2.83;;
3698;SDS011;1865;50.918;7.092;2023-03-05T09:01:12;14.87;;;3.37;;
3698;SDS011;1865;50.918;7.092;2023-03-05T09:03:38;12.53;;;2.40;;
3698;SDS011;1865;50.918;7.092;2023-03-05T09:06:05;19.43;;;3.00;;
3698;SDS011;1865;50.918;7.092;2023-03-05T09:08:32;13.53;;;3.50;;
3698;SDS011;1865;50.918;7.092;2023-03-05T09:11:02;17.30;;;3.70;;
3698;SDS011;1865;50.918;7.092;2023-03-05T09:13:29;13.23;;;3.27;;
3698;SDS011;1865;50.918;7.092;2023-03-05T09:15:59;14.60;;;3.43;;
3698;SDS011;1865;50.918;7.092;2023-03-05T09:18:26;11.93;;;2.80;;
3698;SDS011;1865;50.918;7.092;2023-03-05T09:20:52;12.80;;;3.13;;
3698;SDS011;1865;50.918;7.092;2023-03-05T09:23:18;11.97;;;3.40;;
3698;SDS011;1865;50.918;7.092;2023-03-05T09:25:43;12.70;;;2.77;;
3698;SDS011;1865;50.918;7.092;2023-03-05T09:28:09;17.83;;;3.17;;
3698;SDS011;1865;50.918;7.092;2023-03-05T09:30:35;9.33;;;2.53;;
3698;SDS011;1865;50.918;7.092;2023-03-05T09:33:01;13.00;;;2.60;;
3698;SDS011;1865;50.918;7.092;2023-03-05T09:35:27;13.53;;;3.40;;
3698;SDS011;1865;50.918;7.092;2023-03-05T09:37:52;16.13;;;3.00;;
3698;SDS011;1865;50.918;7.092;2023-03-05T09:40:18;11.43;;;3.27;;
3698;SDS011;1865;50.918;7.092;2023-03-05T09:48:18;16.83;;;4.13;;
3698;SDS011;1865;50.918;7.092;2023-03-05T09:50:59;20.50;;;3.60;;
3698;SDS011;1865;50.918;7.092;2023-03-05T09:53:33;13.93;;;3.77;;
3698;SDS011;1865;50.918;7.092;2023-03-05T09:56:13;13.97;;;3.33;;
3698;SDS011;1865;50.918;7.092;2023-03-05T09:58:53;11.27;;;3.20;;
3698;SDS011;1865;50.918;7.092;2023-03-05T10:01:25;19.00;;;3.70;;
3698;SDS011;1865;50.918;7.092;2023-03-05T10:04:04;18.90;;;3.67;;
3698;SDS011;1865;50.918;7.092;2023-03-05T10:06:49;11.43;;;3.70;;
3698;SDS011;1865;50.918;7.092;2023-03-05T10:09:40;13.27;;;2.97;;
3698;SDS011;1865;50.918;7.092;2023-03-05T10:12:26;14.00;;;3.53;;
3698;SDS011;1865;50.918;7.092;2023-03-05T10:15:12;12.20;;;3.10;;
3698;SDS011;1865;50.918;7.092;2023-03-05T10:17:52;16.70;;;4.00;;
3698;SDS011;1865;50.918;7.092;2023-03-05T10:26:06;18.77;;;4.87;;
3698;SDS011;1865;50.918;7.092;2023-03-05T10:45:44;21.42;;;7.72;;
3698;SDS011;1865;50.918;7.092;2023-03-05T10:51:12;17.13;;;6.80;;
3698;SDS011;1865;50.918;7.092;2023-03-05T10:56:24;17.03;;;8.07;;
3698;SDS011;1865;50.918;7.092;2023-03-05T10:58:52;16.10;;;8.13;;
3698;SDS011;1865;50.918;7.092;2023-03-05T11:01:20;13.60;;;7.70;;
3698;SDS011;1865;50.918;7.092;2023-03-05T11:03:57;18.13;;;8.73;;
3698;SDS011;1865;50.918;7.092;2023-03-05T11:06:45;23.27;;;8.43;;
3698;SDS011;1865;50.918;7.092;2023-03-05T11:09:26;24.50;;;8.47;;
3698;SDS011;1865;50.918;7.092;2023-03-05T11:14:37;24.97;;;8.67;;
3698;SDS011;1865;50.918;7.092;2023-03-05T11:17:22;16.10;;;8.10;;
3698;SDS011;1865;50.918;7.092;2023-03-05T11:19:52;17.13;;;7.80;;
3698;SDS011;1865;50.918;7.092;2023-03-05T11:22:19;12.90;;;8.20;;
3698;SDS011;1865;50.918;7.092;2023-03-05T11:27:43;20.10;;;8.80;;
3698;SDS011;1865;50.918;7.092;2023-03-05T11:30:24;16.87;;;8.83;;
3698;SDS011;1865;50.918;7.092;2023-03-05T11:35:38;18.80;;;8.50;;
3698;SDS011;1865;50.918;7.092;2023-03-05T11:38:06;26.20;;;7.20;;
3698;SDS011;1865;50.918;7.092;2023-03-05T11:40:44;12.90;;;6.53;;
3698;SDS011;1865;50.918;7.092;2023-03-05T11:43:18;16.57;;;6.10;;
3698;SDS011;1865;50.918;7.092;2023-03-05T11:45:50;18.90;;;7.43;;
3698;SDS011;1865;50.918;7.092;2023-03-05T11:48:29;16.47;;;6.93;;
3698;SDS011;1865;50.918;7.092;2023-03-05T11:50:59;18.80;;;6.90;;
3698;SDS011;1865;50.918;7.092;2023-03-05T11:53:33;15.17;;;7.00;;
3698;SDS011;1865;50.918;7.092;2023-03-05T11:56:04;11.80;;;7.00;;
3698;SDS011;1865;50.918;7.092;2023-03-05T11:58:51;14.23;;;6.27;;
3698;SDS011;1865;50.918;7.092;2023-03-05T12:01:30;13.50;;;6.00;;
3698;SDS011;1865;50.918;7.092;2023-03-05T12:03:58;12.03;;;5.80;;
3698;SDS011;1865;50.918;7.092;2023-03-05T12:06:28;11.90;;;6.37;;
3698;SDS011;1865;50.918;7.092;2023-03-05T12:09:08;9.20;;;5.80;;
3698;SDS011;1865;50.918;7.092;2023-03-05T12:11:40;11.90;;;5.47;;
3698;SDS011;1865;50.918;7.092;2023-03-05T12:16:50;13.13;;;5.83;;
3698;SDS011;1865;50.918;7.092;2023-03-05T12:19:32;11.60;;;5.80;;
3698;SDS011;1865;50.918;7.092;2023-03-05T12:22:01;17.10;;;6.73;;
3698;SDS011;1865;50.918;7.092;2023-03-05T12:26:55;14.80;;;7.67;;
3698;SDS011;1865;50.918;7.092;2023-03-05T12:29:50;14.93;;;7.40;;
3698;SDS011;1865;50.918;7.092;2023-03-05T12:34:58;15.50;;;8.47;;
3698;SDS011;1865;50.918;7.092;2023-03-05T12:40:18;23.13;;;7.90;;
3698;SDS011;1865;50.918;7.092;2023-03-05T12:45:24;12.90;;;7.60;;
3698;SDS011;1865;50.918;7.092;2023-03-05T12:52:54;21.67;;;7.73;;
3698;SDS011;1865;50.918;7.092;2023-03-05T12:55:22;13.70;;;7.73;;
3698;SDS011;1865;50.918;7.092;2023-03-05T12:58:02;16.13;;;6.90;;
3698;SDS011;1865;50.918;7.092;2023-03-05T13:00:48;10.50;;;6.13;;
3698;SDS011;1865;50.918;7.092;2023-03-05T13:03:17;12.43;;;6.47;;
3698;SDS011;1865;50.918;7.092;2023-03-05T13:05:48;13.43;;;6.17;;
3698;SDS011;1865;50.918;7.092;2023-03-05T13:08:26;11.40;;;5.80;;
3698;SDS011;1865;50.918;7.092;2023-03-05T13:13:34;12.87;;;5.83;;
3698;SDS011;1865;50.918;7.092;2023-03-05T13:16:02;13.37;;;5.47;;
3698;SDS011;1865;50.918;7.092;2023-03-05T13:18:29;14.03;;;5.03;;
3698;SDS011;1865;50.918;7.092;2023-03-05T13:21:00;8.60;;;4.70;;
3698;SDS011;1865;50.918;7.092;2023-03-05T13:23:26;9.30;;;5.03;;
3698;SDS011;1865;50.918;7.092;2023-03-05T13:28:21;14.53;;;5.23;;
3698;SDS011;1865;50.918;7.092;2023-03-05T13:30:50;8.93;;;4.63;;
3698;SDS011;1865;50.918;7.092;2023-03-05T13:33:26;11.30;;;4.80;;
3698;SDS011;1865;50.918;7.092;2023-03-05T13:35:54;10.70;;;4.90;;
3698;SDS011;1865;50.918;7.092;2023-03-05T13:38:21;11.03;;;5.17;;
3698;SDS011;1865;50.918;7.092;2023-03-05T13:41:07;8.50;;;4.00;;
3698;SDS011;1865;50.918;7.092;2023-03-05T13:43:45;11.60;;;4.53;;
3698;SDS011;1865;50.918;7.092;2023-03-05T13:46:11;12.70;;;4.90;;
3698;SDS011;1865;50.918;7.092;2023-03-05T13:48:37;9.73;;;3.90;;
3698;SDS011;1865;50.918;7.092;2023-03-05T13:51:02;8.70;;;3.90;;
3698;SDS011;1865;50.918;7.092;2023-03-05T13:53:33;8.67;;;3.50;;
3698;SDS011;1865;50.918;7.092;2023-03-05T13:56:00;6.77;;;3.17;;
3698;SDS011;1865;50.918;7.092;2023-03-05T14:13:46;8.43;;;4.03;;
3698;SDS011;1865;50.918;7.092;2023-03-05T14:16:25;10.77;;;5.73;;
3698;SDS011;1865;50.918;7.092;2023-03-05T14:18:56;15.50;;;6.50;;
3698;SDS011;1865;50.918;7.092;2023-03-05T14:21:24;15.63;;;7.20;;
3698;SDS011;1865;50.918;7.092;2023-03-05T14:23:50;13.77;;;7.63;;
3698;SDS011;1865;50.918;7.092;2023-03-05T14:26:34;10.47;;;5.73;;
3698;SDS011;1865;50.918;7.092;2023-03-05T14:31:52;15.10;;;8.10;;
3698;SDS011;1865;50.918;7.092;2023-03-05T14:37:01;13.03;;;6.70;;
3698;SDS011;1865;50.918;7.092;2023-03-05T14:44:55;13.00;;;6.67;;
3698;SDS011;1865;50.918;7.092;2023-03-05T14:47:22;13.30;;;7.90;;
3698;SDS011;1865;50.918;7.092;2023-03-05T14:49:49;12.23;;;6.17;;
3698;SDS011;1865;50.918;7.092;2023-03-05T14:52:15;12.30;;;6.60;;
3698;SDS011;1865;50.918;7.092;2023-03-05T14:54:43;10.87;;;6.20;;
3698;SDS011;1865;50.918;7.092;2023-03-05T14:57:30;10.77;;;5.70;;
3698;SDS011;1865;50.918;7.092;2023-03-05T14:59:55;14.30;;;5.60;;
3698;SDS011;1865;50.918;7.092;2023-03-05T15:02:22;15.67;;;6.70;;
3698;SDS011;1865;50.918;7.092;2023-03-05T15:04:49;10.20;;;6.30;;
3698;SDS011;1865;50.918;7.092;2023-03-05T15:07:18;13.07;;;7.90;;
3698;SDS011;1865;50.918;7.092;2023-03-05T15:09:50;8.70;;;4.20;;
3698;SDS011;1865;50.918;7.092;2023-03-05T15:12:16;15.50;;;4.80;;
3698;SDS011;1865;50.918;7.092;2023-03-05T15:14:42;9.07;;;3.70;;
3698;SDS011;1865;50.918;7.092;2023-03-05T15:19:59;8.47;;;4.33;;
3698;SDS011;1865;50.918;7.092;2023-03-05T15:22:25;8.10;;;4.17;;
3698;SDS011;1865;50.918;7.092;2023-03-05T15:24:51;13.90;;;5.00;;
3698;SDS011;1865;50.918;7.092;2023-03-05T15:27:16;8.57;;;3.97;;
3698;SDS011;1865;50.918;7.092;2023-03-05T15:29:42;8.60;;;4.50;;
3698;SDS011;1865;50.918;7.092;2023-03-05T15:32:08;9.97;;;5.10;;
3698;SDS011;1865;50.918;7.092;2023-03-05T15:34:33;9.93;;;4.80;;
3698;SDS011;1865;50.918;7.092;2023-03-05T15:37:00;12.93;;;4.90;;
3698;SDS011;1865;50.918;7.092;2023-03-05T15:39:26;10.50;;;4.80;;
3698;SDS011;1865;50.918;7.092;2023-03-05T15:41:52;12.30;;;5.60;;
3698;SDS011;1865;50.918;7.092;2023-03-05T16:00:28;10.30;;;6.30;;
3698;SDS011;1865;50.918;7.092;2023-03-05T16:02:55;12.77;;;6.80;;
3698;SDS011;1865;50.918;7.092;2023-03-05T16:05:20;14.40;;;5.70;;
3698;SDS011;1865;50.918;7.092;2023-03-05T16:07:46;11.10;;;5.93;;
3698;SDS011;1865;50.918;7.092;2023-03-05T16:10:15;12.10;;;5.30;;
3698;SDS011;1865;50.918;7.092;2023-03-05T16:12:45;11.27;;;5.70;;
3698;SDS011;1865;50.918;7.092;2023-03-05T16:15:15;10.17;;;4.90;;
3698;SDS011;1865;50.918;7.092;2023-03-05T16:17:43;10.50;;;5.77;;
3698;SDS011;1865;50.918;7.092;2023-03-05T16:20:12;14.23;;;6.03;;
3698;SDS011;1865;50.918;7.092;2023-03-05T16:22:38;15.43;;;6.00;;
3698;SDS011;1865;50.918;7.092;2023-03-05T16:25:04;13.87;;;6.60;;
3698;SDS011;1865;50.918;7.092;2023-03-05T16:27:30;13.90;;;7.07;;
3698;SDS011;1865;50.918;7.092;2023-03-05T16:29:55;14.60;;;7.13;;
3698;SDS011;1865;50.918;7.092;2023-03-05T16:32:22;15.90;;;7.17;;
3698;SDS011;1865;50.918;7.092;2023-03-05T16:34:48;12.03;;;6.10;;
3698;SDS011;1865;50.918;7.092;2023-03-05T16:37:16;15.23;;;6.93;;
3698;SDS011;1865;50.918;7.092;2023-03-05T16:39:43;14.03;;;7.47;;
3698;SDS011;1865;50.918;7.092;2023-03-05T16:42:09;14.67;;;6.87;;
3698;SDS011;1865;50.918;7.092;2023-03-05T16:44:36;14.83;;;7.70;;
3698;SDS011;1865;50.918;7.092;2023-03-05T16:47:01;16.50;;;7.33;;
3698;SDS011;1865;50.918;7.092;2023-03-05T16:49:28;13.77;;;7.00;;
3698;SDS011;1865;50.918;7.092;2023-03-05T16:51:54;15.57;;;8.40;;
3698;SDS011;1865;50.918;7.092;2023-03-05T16:54:20;14.47;;;7.70;;
3698;SDS011;1865;50.918;7.092;2023-03-05T16:56:46;14.90;;;7.47;;
3698;SDS011;1865;50.918;7.092;2023-03-05T16:59:11;17.50;;;7.73;;
3698;SDS011;1865;50.918;7.092;2023-03-05T17:01:37;15.03;;;8.27;;
3698;SDS011;1865;50.918;7.092;2023-03-05T17:04:02;17.83;;;8.90;;